Time;durP1;ratioP1;P1;durP2;ratioP2;P2;SDS_P1;SDS_P2;PMS_P1;PMS_P2;Temp;Humidity;BMP_temperature;BMP_pressure;BME280_temperature;BME280_humidity;BME280_pressure;Samples;Min_cycle;Max_cycle;Signal;HPM_P1;HPM_P2
2022/01/26 00:06:42;;;;;;;284.60;27.43;;;;;;;-4.02;100.00;96828.03;4954919;29;20248;-83
2022/01/26 00:09:08;;;;;;;137.73;21.60;;;;;;;-4.04;100.00;96828.06;4954770;29;20224;-82
2022/01/26 00:11:35;;;;;;;166.30;21.07;;;;;;;-3.90;100.00;96826.97;4953517;29;20189;-83
2022/01/26 00:14:02;;;;;;;258.93;27.90;;;;;;;-3.81;100.00;96827.63;4954446;29;20186;-81
2022/01/26 00:16:43;;;;;;;244.07;24.83;;;;;;;-3.96;100.00;96827.94;4954479;29;20655;-82
2022/01/26 00:19:13;;;;;;;335.20;29.47;;;;;;;-4.02;100.00;96828.88;4940535;29;20213;-81
2022/01/26 00:21:48;;;;;;;118.40;20.73;;;;;;;-4.05;100.00;96825.56;4937535;29;20219;-82
2022/01/26 00:29:19;;;;;;;322.13;28.67;;;;;;;-4.08;100.00;96828.13;4954658;28;20272;-81
2022/01/26 00:40:24;;;;;;;152.80;27.23;;;;;;;-4.01;100.00;96806.88;4954157;28;20220;-80
2022/01/26 00:42:52;;;;;;;300.27;27.10;;;;;;;-3.97;100.00;96813.56;4940283;29;20196;-82
2022/01/26 00:45:22;;;;;;;256.33;28.13;;;;;;;-3.94;100.00;96812.66;4940210;29;20210;-82
2022/01/26 00:47:47;;;;;;;286.40;28.87;;;;;;;-3.94;100.00;96820.28;4939231;29;20655;-82
2022/01/26 00:50:13;;;;;;;405.57;33.57;;;;;;;-4.03;100.00;96822.13;4938040;29;20244;-82
2022/01/26 00:52:44;;;;;;;362.43;34.03;;;;;;;-4.00;100.00;96816.97;4953304;28;20189;-82
2022/01/26 00:55:15;;;;;;;316.83;32.00;;;;;;;-4.03;100.00;96821.28;4938603;29;20284;-82
2022/01/26 00:57:41;;;;;;;300.27;29.63;;;;;;;-3.99;100.00;96822.88;4953260;29;20213;-82
2022/01/26 01:00:10;;;;;;;273.17;28.43;;;;;;;-3.96;100.00;96814.41;4937669;29;20217;-83
2022/01/26 01:02:35;;;;;;;430.60;39.67;;;;;;;-4.02;100.00;96820.41;4953396;29;20264;-82
2022/01/26 01:05:06;;;;;;;464.83;43.97;;;;;;;-4.01;100.00;96819.56;4937433;29;20627;-82
2022/01/26 01:07:36;;;;;;;519.13;45.37;;;;;;;-4.00;100.00;96811.06;4938225;29;20180;-81
2022/01/26 01:10:02;;;;;;;709.87;60.27;;;;;;;-4.01;100.00;96804.31;4938273;29;20237;-82
2022/01/26 01:12:28;;;;;;;403.13;48.20;;;;;;;-3.99;100.00;96812.75;4936379;29;20181;-82
2022/01/26 01:14:54;;;;;;;475.53;46.60;;;;;;;-3.92;100.00;96816.00;4953570;29;20540;-82
2022/01/26 01:17:25;;;;;;;258.53;31.73;;;;;;;-3.91;100.00;96810.91;4937345;29;20292;-82
2022/01/26 01:23:14;;;;;;;261.73;31.67;;;;;;;-3.92;100.00;96816.84;4925884;29;20193;-83
2022/01/26 01:26:07;;;;;;;303.50;34.77;;;;;;;-3.91;100.00;96815.97;4935836;29;20296;-81
2022/01/26 01:31:00;;;;;;;154.27;26.80;;;;;;;-3.84;100.00;96814.16;4936186;29;20216;-83
2022/01/26 01:33:32;;;;;;;318.00;36.67;;;;;;;-3.83;100.00;96819.19;4935277;29;20316;-82
2022/01/26 01:35:59;;;;;;;314.87;35.37;;;;;;;-3.90;100.00;96816.81;4935886;29;20706;-80
2022/01/26 01:38:28;;;;;;;368.70;41.13;;;;;;;-3.90;100.00;96817.63;4935539;29;20244;-81
2022/01/26 01:40:53;;;;;;;531.40;41.73;;;;;;;-3.95;100.00;96818.63;4927800;29;20205;-81
2022/01/26 01:43:21;;;;;;;397.63;37.57;;;;;;;-3.97;100.00;96821.19;4916432;29;20182;-81
2022/01/26 01:45:49;;;;;;;243.40;31.07;;;;;;;-3.91;100.00;96821.03;4916869;29;20718;-81
2022/01/26 01:48:20;;;;;;;130.27;27.73;;;;;;;-3.86;100.00;96829.44;4932954;29;20233;-82
2022/01/26 01:50:47;;;;;;;242.83;30.00;;;;;;;-3.84;100.00;96822.59;4916435;29;20185;-83
2022/01/26 01:53:15;;;;;;;313.57;36.17;;;;;;;-3.90;100.00;96822.72;4932108;29;20182;-83
2022/01/26 01:55:43;;;;;;;118.53;26.57;;;;;;;-3.86;100.00;96819.28;4916593;29;20222;-82
2022/01/26 01:58:09;;;;;;;52.83;23.83;;;;;;;-3.79;100.00;96820.81;4944601;28;20207;-83
2022/01/26 02:00:36;;;;;;;122.80;26.13;;;;;;;-3.74;100.00;96824.09;4954841;28;20216;-82
2022/01/26 02:03:02;;;;;;;100.30;24.97;;;;;;;-3.77;100.00;96824.16;4956420;28;20184;-82
2022/01/26 02:05:27;;;;;;;318.63;37.17;;;;;;;-3.89;100.00;96826.91;4956428;29;20239;-83
2022/01/26 02:07:53;;;;;;;139.03;26.70;;;;;;;-3.86;100.00;96826.88;4972911;28;20184;-82
2022/01/26 02:10:20;;;;;;;230.00;29.00;;;;;;;-3.89;100.00;96826.09;4972312;28;20211;-82
2022/01/26 02:12:49;;;;;;;111.63;25.20;;;;;;;-3.87;100.00;96830.28;4940400;29;20807;-82
2022/01/26 02:15:21;;;;;;;98.80;24.33;;;;;;;-3.79;100.00;96825.06;4956373;29;20227;-83
2022/01/26 02:18:10;;;;;;;78.43;22.97;;;;;;;-3.85;100.00;96825.19;4957304;28;20192;-82
2022/01/26 02:51:17;;;;;;;129.10;23.67;;;;;;;-3.98;100.00;96819.47;4956538;29;20682;-82
2022/01/26 02:53:57;;;;;;;535.50;45.30;;;;;;;-4.05;100.00;96815.41;4972027;28;20196;-81
2022/01/26 02:56:30;;;;;;;528.60;43.70;;;;;;;-4.07;100.00;96822.19;4972149;28;20185;-82
2022/01/26 03:01:51;;;;;;;375.47;35.70;;;;;;;-4.10;100.00;96815.47;4955325;28;20244;-83
2022/01/26 03:04:27;;;;;;;197.20;27.87;;;;;;;-4.10;100.00;96812.13;4957050;28;20184;-83
2022/01/26 03:07:18;;;;;;;576.53;42.63;;;;;;;-4.16;100.00;96802.06;4940801;28;20185;-82
2022/01/26 03:09:55;;;;;;;823.53;63.20;;;;;;;-4.37;100.00;96796.53;4942942;28;20215;-82
2022/01/26 03:12:25;;;;;;;157.33;24.17;;;;;;;-4.06;100.00;96793.44;4954931;28;20184;-83
2022/01/26 03:14:56;;;;;;;406.43;36.27;;;;;;;-4.06;100.00;96812.03;4955452;29;20216;-82
2022/01/26 03:20:11;;;;;;;234.90;27.67;;;;;;;-4.13;100.00;96813.00;4956303;28;20224;-82
2022/01/26 03:35:48;;;;;;;206.33;28.53;;;;;;;-4.07;100.00;96794.28;4957149;28;20185;-81
2022/01/26 03:38:26;;;;;;;295.83;31.23;;;;;;;-4.12;100.00;96801.16;4941688;28;20184;-83
2022/01/26 03:41:08;;;;;;;201.60;26.70;;;;;;;-4.04;100.00;96801.84;4941165;29;20196;-81
2022/01/26 03:43:33;;;;;;;267.93;28.77;;;;;;;-4.10;100.00;96810.41;4955316;29;20632;-82
2022/01/26 03:45:58;;;;;;;177.63;27.33;;;;;;;-4.11;100.00;96808.75;4939586;28;20193;-81
2022/01/26 03:48:23;;;;;;;193.73;28.40;;;;;;;-4.11;100.00;96820.59;4939680;28;20212;-81
2022/01/26 03:50:49;;;;;;;183.50;27.37;;;;;;;-4.07;100.00;96820.50;4958456;28;20229;-82
2022/01/26 03:53:14;;;;;;;135.03;24.23;;;;;;;-4.09;100.00;96817.16;4942177;28;20591;-83
2022/01/26 03:55:39;;;;;;;296.40;33.57;;;;;;;-4.08;100.00;96818.00;4939948;28;20181;-83
2022/01/26 03:58:05;;;;;;;232.47;30.20;;;;;;;-4.10;100.00;96815.47;4939798;28;20193;-82
2022/01/26 04:00:30;;;;;;;186.73;30.37;;;;;;;-4.07;100.00;96819.66;4940257;28;20220;-82
2022/01/26 04:02:55;;;;;;;126.67;26.07;;;;;;;-4.06;100.00;96808.69;4955102;28;20181;-82
2022/01/26 04:05:20;;;;;;;229.30;30.00;;;;;;;-4.04;100.00;96809.47;4938602;28;20181;-82
2022/01/26 04:07:46;;;;;;;278.57;34.57;;;;;;;-4.02;100.00;96817.88;4954989;28;20571;-82
2022/01/26 04:10:29;;;;;;;327.30;36.17;;;;;;;-3.99;100.00;96818.66;4970319;28;20259;-82
2022/01/26 04:12:54;;;;;;;289.63;34.67;;;;;;;-3.94;100.00;96817.75;4954432;28;20178;-82
2022/01/26 04:15:26;;;;;;;150.40;29.57;;;;;;;-3.96;100.00;96822.03;4970790;28;20212;-82
2022/01/26 04:17:52;;;;;;;260.93;36.33;;;;;;;-3.92;100.00;96828.69;4939306;28;20181;-84
2022/01/26 04:20:18;;;;;;;238.27;35.50;;;;;;;-3.91;100.00;96817.69;4937251;28;20197;-82
2022/01/26 04:22:53;;;;;;;175.03;33.17;;;;;;;-3.90;100.00;96812.56;4953111;28;20245;-81
2022/01/26 04:25:20;;;;;;;181.80;32.17;;;;;;;-3.85;100.00;96808.25;4954636;28;20184;-82
2022/01/26 04:27:48;;;;;;;241.77;31.80;;;;;;;-3.85;100.00;96799.81;4938392;28;20240;-82
2022/01/26 04:30:13;;;;;;;251.20;35.67;;;;;;;-3.77;100.00;96808.09;4938651;28;20582;-82
2022/01/26 04:32:39;;;;;;;297.53;34.07;;;;;;;-3.78;100.00;96803.91;4937517;28;20189;-83
2022/01/26 04:35:06;;;;;;;308.23;34.87;;;;;;;-3.78;100.00;96807.28;4953825;29;20185;-82
2022/01/26 04:38:18;;;;;;;183.50;31.43;;;;;;;-3.81;100.00;96801.41;4938294;29;20181;-81
2022/01/26 04:40:20;;;;;;;306.87;37.07;;;;;;;-3.86;100.00;96798.97;4953756;28;20584;-82
2022/01/26 04:42:55;;;;;;;225.77;31.43;;;;;;;-3.81;100.00;96797.16;4969335;28;20189;-83
2022/01/26 04:45:20;;;;;;;174.87;29.90;;;;;;;-3.79;100.00;96794.63;4939052;29;20189;-82
2022/01/26 04:47:46;;;;;;;247.00;32.83;;;;;;;-3.85;100.00;96795.56;4937668;28;20181;-82
2022/01/26 04:50:11;;;;;;;138.77;30.20;;;;;;;-3.77;100.00;96798.78;4937785;28;20548;-82
2022/01/26 04:52:38;;;;;;;192.70;31.87;;;;;;;-3.78;100.00;96802.19;4969241;28;20177;-82
2022/01/26 04:55:03;;;;;;;267.33;34.80;;;;;;;-3.79;100.00;96800.53;4953557;28;20261;-81
2022/01/26 04:57:29;;;;;;;447.93;41.33;;;;;;;-3.84;100.00;96799.75;4937582;29;20748;-81
2022/01/26 04:59:54;;;;;;;264.17;35.83;;;;;;;-3.82;100.00;96792.94;4953700;28;20215;-82
2022/01/26 05:02:19;;;;;;;232.23;33.33;;;;;;;-3.80;100.00;96793.78;4953462;29;20260;-82
2022/01/26 05:04:44;;;;;;;243.37;35.37;;;;;;;-3.82;100.00;96787.03;4937865;29;20652;-81
2022/01/26 05:07:10;;;;;;;258.97;35.77;;;;;;;-3.93;100.00;96782.19;4937919;28;20223;-81
2022/01/26 05:09:36;;;;;;;71.73;27.73;;;;;;;-3.85;100.00;96790.47;4937758;28;20197;-82
2022/01/26 05:12:02;;;;;;;197.27;33.57;;;;;;;-3.85;100.00;96797.25;4957235;28;20177;-82
2022/01/26 05:14:27;;;;;;;151.90;28.80;;;;;;;-3.89;100.00;96805.78;4954543;28;20184;-80
2022/01/26 05:16:53;;;;;;;120.67;30.13;;;;;;;-3.82;100.00;96813.25;4957918;28;20172;-81
2022/01/26 05:19:18;;;;;;;182.37;31.33;;;;;;;-3.81;100.00;96812.38;4957532;28;20219;-83
2022/01/26 05:21:43;;;;;;;170.73;30.77;;;;;;;-3.80;100.00;96814.09;4973179;28;20189;-82
2022/01/26 05:24:12;;;;;;;122.40;29.37;;;;;;;-3.75;100.00;96817.34;4973118;28;20185;-82
2022/01/26 05:26:39;;;;;;;134.07;28.03;;;;;;;-3.75;100.00;96814.81;4958001;28;20681;-82
2022/01/26 05:29:05;;;;;;;82.73;26.77;;;;;;;-3.70;100.00;96809.66;4973424;28;20235;-82
2022/01/26 05:31:30;;;;;;;245.07;33.00;;;;;;;-3.76;100.00;96809.78;4957251;28;20713;-82
2022/01/26 05:33:56;;;;;;;122.23;27.83;;;;;;;-3.73;100.00;96807.16;4957377;28;20184;-82
2022/01/26 05:36:21;;;;;;;92.07;28.33;;;;;;;-3.69;100.00;96803.72;4957316;28;20177;-82
2022/01/26 05:38:47;;;;;;;125.40;30.57;;;;;;;-3.67;100.00;96808.75;4957166;28;20200;-82
2022/01/26 05:41:12;;;;;;;153.73;36.67;;;;;;;-3.71;100.00;96810.50;4957085;28;20271;-82
2022/01/26 05:43:37;;;;;;;196.07;32.57;;;;;;;-3.71;100.00;96818.13;4957271;28;20186;-83
2022/01/26 05:46:15;;;;;;;115.70;28.93;;;;;;;-3.65;100.00;96818.00;4973463;28;20176;-82
2022/01/26 05:48:45;;;;;;;81.10;26.87;;;;;;;-3.65;100.00;96820.53;4958877;28;20686;-83
2022/01/26 05:51:11;;;;;;;92.83;28.90;;;;;;;-3.66;100.00;96818.03;4957841;28;20177;-83
2022/01/26 05:53:38;;;;;;;165.17;32.90;;;;;;;-3.63;100.00;96821.34;4957166;28;20180;-83
2022/01/26 05:56:03;;;;;;;117.43;28.20;;;;;;;-3.63;100.00;96812.88;4947771;28;20182;-81
2022/01/26 05:58:29;;;;;;;136.97;31.27;;;;;;;-3.61;100.00;96817.09;4937732;29;20612;-83
2022/01/26 06:00:57;;;;;;;152.87;32.40;;;;;;;-3.59;100.00;96811.97;4961211;28;20195;-84
2022/01/26 06:03:22;;;;;;;169.90;29.87;;;;;;;-3.62;100.00;96804.41;4956255;28;20184;-84
2022/01/26 06:05:48;;;;;;;310.57;36.07;;;;;;;-3.65;100.00;96807.00;4964762;28;20606;-85
2022/01/26 06:08:16;;;;;;;110.43;29.30;;;;;;;-3.60;100.00;96815.38;4967544;28;20191;-84
2022/01/26 06:10:42;;;;;;;132.10;30.73;;;;;;;-3.59;100.00;96804.34;4955871;28;20709;-83
2022/01/26 06:13:07;;;;;;;112.10;31.70;;;;;;;-3.56;100.00;96804.28;4954766;28;20282;-82
2022/01/26 06:15:33;;;;;;;98.40;29.50;;;;;;;-3.59;100.00;96791.66;4955584;28;20182;-83
2022/01/26 06:17:59;;;;;;;122.40;29.53;;;;;;;-3.63;100.00;96790.03;4955055;28;20213;-84
2022/01/26 06:20:25;;;;;;;67.57;26.53;;;;;;;-3.56;100.00;96792.41;4955529;28;20302;-83
2022/01/26 06:22:50;;;;;;;186.23;33.60;;;;;;;-3.69;100.00;96785.09;4954825;28;20670;-82
2022/01/26 06:25:19;;;;;;;212.50;31.97;;;;;;;-3.78;100.00;96781.88;4972192;28;20561;-82
2022/01/26 06:27:45;;;;;;;200.50;33.83;;;;;;;-3.81;100.00;96783.63;4971836;28;20188;-83
2022/01/26 06:35:21;;;;;;;173.40;31.87;;;;;;;-3.67;100.00;96788.44;1401254;26;20224;-83
2022/01/26 06:37:46;;;;;;;182.20;35.93;;;;;;;-3.66;100.00;96787.56;5004170;28;20205;-83
2022/01/26 06:40:12;;;;;;;120.63;44.50;;;;;;;-3.61;100.00;96781.53;5002780;28;20224;-83
2022/01/26 06:42:51;;;;;;;109.23;33.50;;;;;;;-3.55;100.00;96775.47;4935806;29;20204;-83
2022/01/26 06:45:19;;;;;;;261.30;36.00;;;;;;;-3.68;100.00;96772.38;4938976;28;20189;-82
2022/01/26 06:47:55;;;;;;;306.17;38.73;;;;;;;-3.75;100.00;96781.81;4940195;29;20669;-83
2022/01/26 06:50:21;;;;;;;232.10;32.73;;;;;;;-3.77;100.00;96782.72;4959083;28;20187;-83
2022/01/26 06:52:47;;;;;;;110.03;30.17;;;;;;;-3.69;100.00;96785.09;4959600;28;20244;-84
2022/01/26 06:55:13;;;;;;;125.60;29.93;;;;;;;-3.68;100.00;96789.31;4960229;28;20176;-85
2022/01/26 06:57:39;;;;;;;152.80;32.20;;;;;;;-3.68;100.00;96794.38;4959471;28;20239;-84
2022/01/26 07:00:05;;;;;;;109.80;30.13;;;;;;;-3.75;100.00;96796.22;4961027;28;20701;-84
2022/01/26 07:02:31;;;;;;;100.63;29.80;;;;;;;-3.71;100.00;96798.66;4977152;28;20185;-83
2022/01/26 07:04:56;;;;;;;121.37;37.50;;;;;;;-3.71;100.00;96800.34;4978306;28;20263;-82
2022/01/26 07:07:21;;;;;;;130.90;33.30;;;;;;;-3.63;100.00;96790.03;4964741;28;20182;-83
2022/01/26 07:09:46;;;;;;;91.30;34.23;;;;;;;-3.66;100.00;96792.66;4982654;28;20204;-82
2022/01/26 07:12:12;;;;;;;116.60;37.53;;;;;;;-3.62;100.00;96799.31;4976392;28;20180;-85
2022/01/26 07:20:56;;;;;;;110.83;36.63;;;;;;;-3.61;100.00;96824.72;4975318;28;20270;-83
2022/01/26 07:22:57;;;;;;;115.20;38.43;;;;;;;-3.59;100.00;96819.59;4982171;28;20540;-83
2022/01/26 07:25:22;;;;;;;88.83;31.73;;;;;;;-3.50;100.00;96816.88;4982772;28;20232;-82
2022/01/26 07:27:49;;;;;;;198.67;38.70;;;;;;;-3.54;100.00;96820.31;4960323;28;20181;-83
2022/01/26 07:30:15;;;;;;;229.97;38.10;;;;;;;-3.55;100.00;96816.94;4977925;28;20196;-83
2022/01/26 07:32:40;;;;;;;110.27;34.63;;;;;;;-3.51;100.00;96815.19;4962001;28;20268;-82
2022/01/26 07:35:05;;;;;;;120.93;37.00;;;;;;;-3.51;100.00;96835.50;4960474;28;20216;-82
2022/01/26 07:37:31;;;;;;;138.93;56.77;;;;;;;-3.46;100.00;96833.69;4978754;28;20204;-84
2022/01/26 07:40:04;;;;;;;137.47;37.87;;;;;;;-3.44;100.00;96827.75;4980598;28;20213;-83
2022/01/26 07:42:31;;;;;;;116.83;38.10;;;;;;;-3.39;100.00;96834.41;4975909;28;20189;-84
2022/01/26 07:44:56;;;;;;;269.83;92.90;;;;;;;-3.39;100.00;96854.72;4957492;28;20268;-82
2022/01/26 07:47:23;;;;;;;179.57;58.00;;;;;;;-3.39;100.00;96852.19;4959061;28;20181;-82
2022/01/26 07:49:49;;;;;;;130.20;43.07;;;;;;;-3.28;100.00;96845.19;4960711;28;20610;-80
2022/01/26 07:52:14;;;;;;;432.53;75.13;;;;;;;-3.40;100.00;96851.34;4959386;28;20189;-80
2022/01/26 07:54:40;;;;;;;163.70;44.17;;;;;;;-3.30;100.00;96852.00;4976284;28;20705;-81
2022/01/26 07:57:07;;;;;;;204.20;39.07;;;;;;;-3.30;100.00;96854.53;4960449;28;20213;-83
2022/01/26 07:59:32;;;;;;;189.37;37.80;;;;;;;-3.16;100.00;96858.47;4975548;28;20682;-80
2022/01/26 08:01:58;;;;;;;272.53;38.10;;;;;;;-3.20;100.00;96854.31;4958117;28;20191;-81
2022/01/26 08:04:23;;;;;;;412.90;47.10;;;;;;;-3.18;100.00;96855.13;4959126;28;20188;-80
2022/01/26 08:06:48;;;;;;;379.13;41.63;;;;;;;-3.16;100.00;96858.47;4975560;28;20560;-80
2022/01/26 08:09:14;;;;;;;296.23;39.73;;;;;;;-3.07;100.00;96859.97;4977339;28;20200;-81
2022/01/26 08:11:39;;;;;;;254.17;37.87;;;;;;;-3.08;100.00;96854.94;4975366;28;20280;-80
2022/01/26 08:14:04;;;;;;;312.20;38.03;;;;;;;-2.97;100.00;96843.66;4976284;28;20536;-81
2022/01/26 08:16:30;;;;;;;363.50;42.07;;;;;;;-3.04;100.00;96837.03;4975307;28;20244;-80
2022/01/26 08:18:55;;;;;;;478.03;48.33;;;;;;;-3.00;100.00;96850.53;4975268;28;20218;-80
2022/01/26 08:21:20;;;;;;;479.50;46.00;;;;;;;-2.97;100.00;96853.00;4960067;28;20315;-79
2022/01/26 08:23:47;;;;;;;223.03;33.73;;;;;;;-3.05;100.00;96854.84;4977243;28;20252;-79
2022/01/26 08:26:14;;;;;;;315.87;40.77;;;;;;;-3.19;100.00;96861.06;4961478;28;20188;-83
2022/01/26 08:28:42;;;;;;;384.73;42.37;;;;;;;-3.21;100.00;96875.50;4957770;28;20209;-82
2022/01/26 08:31:07;;;;;;;218.40;34.87;;;;;;;-3.16;100.00;96863.56;4973898;28;20235;-80
2022/01/26 08:33:33;;;;;;;335.83;37.70;;;;;;;-3.19;100.00;96878.84;4974211;28;20196;-80
2022/01/26 08:35:58;;;;;;;216.03;32.83;;;;;;;-3.20;100.00;96861.94;4973635;28;20201;-79
2022/01/26 08:38:24;;;;;;;199.60;31.93;;;;;;;-3.11;100.00;96860.06;4974188;28;20204;-80
2022/01/26 08:40:49;;;;;;;147.17;31.57;;;;;;;-3.06;100.00;96866.72;4957948;28;20193;-80
2022/01/26 08:43:15;;;;;;;412.70;42.23;;;;;;;-3.19;100.00;96867.84;4954702;28;20604;-78
2022/01/26 08:45:41;;;;;;;299.53;35.13;;;;;;;-3.22;100.00;96876.38;4973822;28;20184;-79
2022/01/26 08:53:17;;;;;;;139.30;31.67;;;;;;;-3.19;100.00;96876.31;1338329;26;20233;-83
2022/01/26 08:55:43;;;;;;;385.43;40.70;;;;;;;-3.15;100.00;96879.63;4996364;28;20274;-79
2022/01/26 08:58:08;;;;;;;429.83;44.83;;;;;;;-3.18;100.00;96883.09;4998083;28;20176;-81
2022/01/26 09:00:35;;;;;;;275.00;37.90;;;;;;;-3.05;100.00;96880.28;4982582;28;20203;-81
2022/01/26 09:03:00;;;;;;;403.60;41.13;;;;;;;-3.01;100.00;96887.78;4975132;28;20683;-81
2022/01/26 09:05:26;;;;;;;149.00;30.17;;;;;;;-2.94;100.00;96896.13;4979415;28;20180;-79
2022/01/26 09:07:56;;;;;;;121.97;30.13;;;;;;;-2.96;100.00;96902.94;4991576;28;20187;-80
2022/01/26 09:10:21;;;;;;;200.13;34.53;;;;;;;-3.05;100.00;96901.44;4992138;28;20223;-78
2022/01/26 09:12:48;;;;;;;373.60;43.53;;;;;;;-3.00;100.00;96903.91;4972773;28;20511;-78
2022/01/26 09:15:14;;;;;;;201.47;34.67;;;;;;;-2.99;100.00;96915.72;4978863;28;20682;-79
2022/01/26 09:17:40;;;;;;;145.30;33.43;;;;;;;-2.91;100.00;96911.31;4974603;28;20191;-82
2022/01/26 09:20:06;;;;;;;247.20;37.70;;;;;;;-2.83;100.00;96886.53;4967524;28;20218;-83
2022/01/26 09:22:32;;;;;;;372.83;41.67;;;;;;;-2.86;100.00;96887.47;4971290;28;20192;-80
2022/01/26 09:24:57;;;;;;;256.00;34.20;;;;;;;-2.84;100.00;96900.13;4991050;28;20196;-86
2022/01/26 09:27:26;;;;;;;491.93;48.00;;;;;;;-2.77;100.00;96890.66;4977847;28;20184;-84
2022/01/26 09:29:51;;;;;;;314.20;35.27;;;;;;;-2.68;100.00;96886.22;4975432;28;20204;-81
2022/01/26 09:32:16;;;;;;;630.40;49.03;;;;;;;-2.71;100.00;96881.19;4974734;28;20194;-79
2022/01/26 09:34:42;;;;;;;457.50;41.10;;;;;;;-2.64;100.00;96895.47;4971175;28;20240;-79
2022/01/26 09:37:12;;;;;;;187.20;30.60;;;;;;;-2.60;100.00;96883.50;4982278;28;20642;-78
2022/01/26 09:39:41;;;;;;;200.33;31.20;;;;;;;-2.43;100.00;96883.94;4997016;28;20307;-79
2022/01/26 09:42:08;;;;;;;255.77;33.60;;;;;;;-2.49;100.00;96875.59;4979511;28;20184;-81
2022/01/26 09:44:33;;;;;;;501.60;44.67;;;;;;;-2.47;100.00;96863.69;4979843;28;20178;-81
2022/01/26 09:46:59;;;;;;;334.97;36.17;;;;;;;-2.41;100.00;96864.38;5007230;28;20299;-81
2022/01/26 09:49:31;;;;;;;708.00;55.40;;;;;;;-2.52;100.00;96871.44;5000781;28;20205;-82
2022/01/26 09:52:13;;;;;;;375.57;37.47;;;;;;;-2.47;100.00;96868.78;5004199;28;20183;-81
2022/01/26 09:54:38;;;;;;;164.70;29.30;;;;;;;-2.42;100.00;96867.78;5016864;28;20590;-80
2022/01/26 09:57:04;;;;;;;413.43;43.17;;;;;;;-2.43;100.00;96866.13;4995231;28;20213;-79
2022/01/26 09:59:31;;;;;;;377.07;38.17;;;;;;;-2.38;100.00;96855.84;4997972;28;20557;-81
2022/01/26 10:01:56;;;;;;;463.10;40.43;;;;;;;-2.47;100.00;96854.38;4998371;28;20200;-81
2022/01/26 10:04:31;;;;;;;152.77;27.23;;;;;;;-2.30;100.00;96836.13;4997990;28;20246;-81
2022/01/26 10:07:24;;;;;;;145.07;26.37;;;;;;;-2.26;100.00;96836.91;5001438;28;20222;-82
2022/01/26 10:10:32;;;;;;;231.50;30.23;;;;;;;-2.25;100.00;96848.75;5012472;28;20203;-81
2022/01/26 10:15:50;;;;;;;64.10;23.27;;;;;;;-2.18;100.00;96843.47;5018375;28;20191;-80
2022/01/26 10:18:19;;;;;;;73.30;26.60;;;;;;;-1.94;100.00;96830.97;5015792;28;20179;-81
2022/01/26 10:20:50;;;;;;;105.13;25.73;;;;;;;-1.77;100.00;96828.78;5016524;28;20227;-82
2022/01/26 10:23:18;;;;;;;79.97;27.00;;;;;;;-1.79;100.00;96823.75;5017609;28;20666;-79
2022/01/26 10:25:47;;;;;;;74.90;25.87;;;;;;;-1.73;100.00;96833.78;5017549;28;20251;-80
2022/01/26 10:28:14;;;;;;;63.53;25.13;;;;;;;-1.64;100.00;96830.16;5000887;28;20180;-80
2022/01/26 10:30:45;;;;;;;59.83;24.17;;;;;;;-1.50;100.00;96814.50;4998304;28;20200;-79
2022/01/26 10:33:11;;;;;;;56.67;23.70;;;;;;;-1.63;100.00;96818.25;4995879;28;20176;-81
2022/01/26 10:35:37;;;;;;;65.60;22.73;;;;;;;-1.84;100.00;96828.16;5015263;28;20277;-81
2022/01/26 10:38:03;;;;;;;63.97;23.13;;;;;;;-1.87;100.00;96838.41;4996471;28;20253;-80
2022/01/26 10:40:29;;;;;;;60.17;21.97;;;;;;;-1.91;100.00;96839.38;4993598;28;20200;-78
2022/01/26 10:43:01;;;;;;;52.17;22.53;;;;;;;-1.88;100.00;96857.09;4997896;28;20198;-80
2022/01/26 10:45:36;;;;;;;68.87;23.53;;;;;;;-1.95;100.00;96862.38;4999581;28;20223;-79
2022/01/26 10:48:25;;;;;;;83.70;23.60;;;;;;;-1.88;100.00;96862.19;4998941;28;20179;-80
2022/01/26 10:53:40;;;;;;;80.07;22.70;;;;;;;-2.16;100.00;96879.88;5017772;28;20502;-82
2022/01/26 10:56:05;;;;;;;211.13;29.03;;;;;;;-2.38;100.00;96888.94;4993362;28;20443;-81
2022/01/26 10:58:31;;;;;;;161.60;27.23;;;;;;;-2.31;100.00;96885.34;5015468;28;20206;-80
2022/01/26 11:00:57;;;;;;;267.07;31.37;;;;;;;-2.35;100.00;96889.69;4999695;28;20183;-80
2022/01/26 11:03:22;;;;;;;297.97;38.37;;;;;;;-2.30;100.00;96887.00;5009311;28;20181;-78
2022/01/26 11:05:48;;;;;;;471.50;44.23;;;;;;;-2.52;100.00;96901.13;5006899;28;20191;-77
2022/01/26 11:08:13;;;;;;;188.77;28.30;;;;;;;-2.64;100.00;96894.63;5012724;28;20182;-79
2022/01/26 11:10:39;;;;;;;186.53;28.13;;;;;;;-2.44;100.00;96896.69;4996285;28;20222;-78
2022/01/26 11:13:05;;;;;;;160.53;25.13;;;;;;;-2.34;100.00;96898.16;5014996;28;20302;-79
2022/01/26 11:15:31;;;;;;;584.07;50.80;;;;;;;-2.50;100.00;96896.84;5015001;28;20183;-80
2022/01/26 11:18:17;;;;;;;518.00;51.93;;;;;;;-2.56;100.00;96900.38;4998927;28;20183;-79
2022/01/26 11:20:49;;;;;;;472.53;42.30;;;;;;;-2.56;100.00;96897.84;5016472;28;20185;-79
2022/01/26 11:23:21;;;;;;;456.53;40.77;;;;;;;-2.39;100.00;96877.06;5015192;28;20231;-80
2022/01/26 11:25:48;;;;;;;600.00;50.37;;;;;;;-2.54;100.00;96877.44;5013781;28;20195;-78
2022/01/26 11:28:26;;;;;;;277.37;34.43;;;;;;;-2.47;100.00;96876.41;5012484;28;20245;-81
2022/01/26 11:30:53;;;;;;;191.90;29.43;;;;;;;-2.50;100.00;96868.84;4996007;28;20187;-79
2022/01/26 11:33:22;;;;;;;317.20;40.10;;;;;;;-2.34;100.00;96847.25;5012188;28;20186;-79
2022/01/26 11:35:49;;;;;;;361.00;36.93;;;;;;;-2.38;100.00;96871.13;4996213;28;20192;-80
2022/01/26 11:47:00;;;;;;;365.10;38.17;;;;;;;-2.42;100.00;96869.50;5013835;28;20198;-79
2022/01/26 11:49:37;;;;;;;227.23;30.53;;;;;;;-2.38;100.00;96860.94;5012518;28;20206;-78
2022/01/26 11:52:03;;;;;;;210.13;33.90;;;;;;;-2.24;100.00;96847.88;5011688;28;20198;-78
2022/01/26 11:54:41;;;;;;;225.03;30.37;;;;;;;-2.18;100.00;96853.66;4999824;28;20199;-79
2022/01/26 11:57:12;;;;;;;177.77;27.73;;;;;;;-2.33;100.00;96856.56;4996224;28;20280;-78
2022/01/26 11:59:45;;;;;;;367.90;38.17;;;;;;;-2.41;100.00;96844.03;4997085;28;20269;-78
2022/01/26 12:02:41;;;;;;;219.27;30.53;;;;;;;-2.38;100.00;96848.22;4996826;28;20608;-78
2022/01/26 12:05:10;;;;;;;202.60;26.77;;;;;;;-2.34;100.00;96849.81;5013669;28;20177;-79
2022/01/26 12:07:53;;;;;;;108.90;23.73;;;;;;;-2.30;100.00;96836.13;4997033;28;20194;-78
2022/01/26 12:10:28;;;;;;;224.00;31.20;;;;;;;-2.35;100.00;96848.13;5018176;28;20587;-79
2022/01/26 12:13:07;;;;;;;144.27;24.53;;;;;;;-2.31;100.00;96844.63;5017475;28;20503;-81
2022/01/26 12:15:43;;;;;;;109.47;24.47;;;;;;;-2.27;100.00;96841.16;4999238;28;20186;-80
2022/01/26 12:38:17;;;;;;;160.50;27.53;;;;;;;-2.26;100.00;96827.56;5013032;28;20195;-80
2022/01/26 12:43:53;;;;;;;201.10;24.70;;;;;;;-2.34;100.00;96834.53;5005614;28;20626;-80
2022/01/26 12:46:26;;;;;;;103.13;22.27;;;;;;;-2.16;100.00;96839.16;4996593;28;20186;-79
2022/01/26 12:49:49;;;;;;;123.20;22.13;;;;;;;-2.00;100.00;96835.34;5208411;23;20227;-78
2022/01/26 12:55:48;;;;;;;;;;;;;;;;;;;;;
2022/01/26 12:58:55;;;;;;;123.47;22.90;;;;;;;-2.06;100.00;96853.31;4992832;28;20567;-80
2022/01/26 13:01:52;;;;;;;279.23;32.43;;;;;;;-2.07;100.00;96840.63;4989973;28;20195;-80
2022/01/26 13:04:29;;;;;;;253.53;34.57;;;;;;;-2.05;100.00;96837.16;4972452;28;20650;-80
2022/01/26 13:07:35;;;;;;;244.97;32.23;;;;;;;-2.12;100.00;96824.63;4988642;28;20318;-78
2022/01/26 13:14:37;;;;;;;;;;;;;;;;;;;;;
2022/01/26 13:18:10;;;;;;;244.80;27.83;;;;;;;-2.04;100.00;96840.56;5005997;28;20206;-80
2022/01/26 13:21:37;;;;;;;205.60;24.60;;;;;;;-2.21;100.00;96845.22;5010805;28;20307;-81
2022/01/26 13:31:27;;;;;;;250.80;26.70;;;;;;;-2.47;100.00;96849.28;5003454;28;20739;-81
2022/01/26 13:34:35;;;;;;;267.50;31.37;;;;;;;-2.39;100.00;96870.25;4999186;28;20290;-81
2022/01/26 13:45:08;;;;;;;444.70;40.20;;;;;;;-2.75;100.00;96861.78;4994296;28;20183;-80
2022/01/26 13:50:30;;;;;;;502.53;42.80;;;;;;;-2.77;100.00;96847.44;5009586;28;20711;-79